sensor_id;sensor_type;location;lat;lon;timestamp;P1;durP1;ratioP1;P2;durP2;ratioP2
16015;SDS011;8112;53.592;10.184;2022-08-03T00:00:09;4.83;;;3.50;;
16015;SDS011;8112;53.592;10.184;2022-08-03T00:05:15;3.90;;;3.60;;
16015;SDS011;8112;53.592;10.184;2022-08-03T00:10:17;4.13;;;3.50;;
16015;SDS011;8112;53.592;10.184;2022-08-03T00:15:19;4.23;;;3.83;;
16015;SDS011;8112;53.592;10.184;2022-08-03T00:20:22;3.93;;;3.60;;
16015;SDS011;8112;53.592;10.184;2022-08-03T00:25:24;4.77;;;4.23;;
16015;SDS011;8112;53.592;10.184;2022-08-03T00:30:26;4.10;;;3.80;;
16015;SDS011;8112;53.592;10.184;2022-08-03T00:35:29;4.20;;;3.80;;
16015;SDS011;8112;53.592;10.184;2022-08-03T00:40:31;4.10;;;3.70;;
16015;SDS011;8112;53.592;10.184;2022-08-03T00:45:34;5.43;;;4.00;;
16015;SDS011;8112;53.592;10.184;2022-08-03T00:50:40;4.43;;;4.03;;
16015;SDS011;8112;53.592;10.184;2022-08-03T00:55:43;4.87;;;4.47;;
16015;SDS011;8112;53.592;10.184;2022-08-03T01:00:45;4.40;;;4.00;;
16015;SDS011;8112;53.592;10.184;2022-08-03T01:05:51;4.70;;;4.10;;
16015;SDS011;8112;53.592;10.184;2022-08-03T01:10:59;4.60;;;4.30;;
16015;SDS011;8112;53.592;10.184;2022-08-03T01:16:11;4.87;;;4.37;;
16015;SDS011;8112;53.592;10.184;2022-08-03T01:21:20;5.00;;;4.50;;
16015;SDS011;8112;53.592;10.184;2022-08-03T01:26:41;4.33;;;3.93;;
16015;SDS011;8112;53.592;10.184;2022-08-03T01:31:56;4.93;;;4.50;;
16015;SDS011;8112;53.592;10.184;2022-08-03T01:37:02;4.77;;;4.27;;
16015;SDS011;8112;53.592;10.184;2022-08-03T01:42:06;5.63;;;4.40;;
16015;SDS011;8112;53.592;10.184;2022-08-03T01:47:13;4.83;;;4.43;;
16015;SDS011;8112;53.592;10.184;2022-08-03T01:52:17;4.63;;;4.23;;
16015;SDS011;8112;53.592;10.184;2022-08-03T01:57:20;4.83;;;4.43;;
16015;SDS011;8112;53.592;10.184;2022-08-03T02:02:25;4.50;;;4.10;;
16015;SDS011;8112;53.592;10.184;2022-08-03T02:07:28;5.03;;;4.53;;
16015;SDS011;8112;53.592;10.184;2022-08-03T02:12:32;4.90;;;4.50;;
16015;SDS011;8112;53.592;10.184;2022-08-03T02:17:38;5.53;;;4.30;;
16015;SDS011;8112;53.592;10.184;2022-08-03T02:22:42;4.73;;;4.33;;
16015;SDS011;8112;53.592;10.184;2022-08-03T02:27:48;4.57;;;4.17;;
16015;SDS011;8112;53.592;10.184;2022-08-03T02:32:56;5.10;;;4.60;;
16015;SDS011;8112;53.592;10.184;2022-08-03T02:38:00;4.67;;;4.30;;
16015;SDS011;8112;53.592;10.184;2022-08-03T02:43:04;6.23;;;4.50;;
16015;SDS011;8112;53.592;10.184;2022-08-03T02:48:10;5.30;;;4.87;;
16015;SDS011;8112;53.592;10.184;2022-08-03T02:53:16;5.73;;;4.57;;
16015;SDS011;8112;53.592;10.184;2022-08-03T02:58:20;6.20;;;4.87;;
16015;SDS011;8112;53.592;10.184;2022-08-03T03:03:25;5.33;;;4.40;;
16015;SDS011;8112;53.592;10.184;2022-08-03T03:08:27;5.63;;;4.80;;
16015;SDS011;8112;53.592;10.184;2022-08-03T03:13:30;5.70;;;4.40;;
16015;SDS011;8112;53.592;10.184;2022-08-03T03:18:34;5.13;;;4.73;;
16015;SDS011;8112;53.592;10.184;2022-08-03T03:23:38;5.00;;;4.60;;
16015;SDS011;8112;53.592;10.184;2022-08-03T03:28:42;5.17;;;4.70;;
16015;SDS011;8112;53.592;10.184;2022-08-03T03:33:54;5.33;;;4.83;;
16015;SDS011;8112;53.592;10.184;2022-08-03T03:38:57;5.03;;;4.63;;
16015;SDS011;8112;53.592;10.184;2022-08-03T03:43:59;7.27;;;5.93;;
16015;SDS011;8112;53.592;10.184;2022-08-03T03:49:02;5.97;;;5.47;;
16015;SDS011;8112;53.592;10.184;2022-08-03T03:54:06;4.97;;;4.57;;
16015;SDS011;8112;53.592;10.184;2022-08-03T03:59:07;5.70;;;5.23;;
16015;SDS011;8112;53.592;10.184;2022-08-03T04:04:12;6.73;;;6.13;;
16015;SDS011;8112;53.592;10.184;2022-08-03T04:09:31;7.50;;;6.70;;
16015;SDS011;8112;53.592;10.184;2022-08-03T04:14:53;6.10;;;5.57;;
16015;SDS011;8112;53.592;10.184;2022-08-03T04:20:00;6.43;;;5.93;;
16015;SDS011;8112;53.592;10.184;2022-08-03T04:25:04;5.57;;;5.13;;
16015;SDS011;8112;53.592;10.184;2022-08-03T04:30:10;5.57;;;5.17;;
16015;SDS011;8112;53.592;10.184;2022-08-03T04:35:14;6.17;;;5.57;;
16015;SDS011;8112;53.592;10.184;2022-08-03T04:40:17;6.50;;;5.90;;
16015;SDS011;8112;53.592;10.184;2022-08-03T04:45:22;5.67;;;5.00;;
16015;SDS011;8112;53.592;10.184;2022-08-03T04:50:26;5.30;;;4.90;;
16015;SDS011;8112;53.592;10.184;2022-08-03T04:55:38;6.10;;;5.53;;
16015;SDS011;8112;53.592;10.184;2022-08-03T05:00:40;6.47;;;5.97;;
16015;SDS011;8112;53.592;10.184;2022-08-03T05:05:43;5.90;;;5.40;;
16015;SDS011;8112;53.592;10.184;2022-08-03T05:10:45;5.93;;;5.33;;
16015;SDS011;8112;53.592;10.184;2022-08-03T05:15:48;6.40;;;5.67;;
16015;SDS011;8112;53.592;10.184;2022-08-03T05:20:51;6.07;;;5.03;;
16015;SDS011;8112;53.592;10.184;2022-08-03T05:25:53;6.00;;;5.40;;
16015;SDS011;8112;53.592;10.184;2022-08-03T05:30:55;5.80;;;5.13;;
16015;SDS011;8112;53.592;10.184;2022-08-03T05:35:59;6.00;;;5.43;;
16015;SDS011;8112;53.592;10.184;2022-08-03T05:41:01;5.47;;;4.93;;
16015;SDS011;8112;53.592;10.184;2022-08-03T05:46:04;5.17;;;4.67;;
16015;SDS011;8112;53.592;10.184;2022-08-03T05:51:08;7.30;;;4.90;;
16015;SDS011;8112;53.592;10.184;2022-08-03T05:56:11;5.20;;;4.70;;
16015;SDS011;8112;53.592;10.184;2022-08-03T06:01:13;5.60;;;4.77;;
16015;SDS011;8112;53.592;10.184;2022-08-03T06:06:17;6.27;;;4.83;;
16015;SDS011;8112;53.592;10.184;2022-08-03T06:11:19;6.90;;;4.57;;
16015;SDS011;8112;53.592;10.184;2022-08-03T06:16:21;5.43;;;4.90;;
16015;SDS011;8112;53.592;10.184;2022-08-03T06:21:24;4.53;;;4.10;;
16015;SDS011;8112;53.592;10.184;2022-08-03T06:26:25;7.17;;;3.77;;
16015;SDS011;8112;53.592;10.184;2022-08-03T06:31:28;3.73;;;3.43;;
16015;SDS011;8112;53.592;10.184;2022-08-03T06:36:31;3.97;;;3.50;;
16015;SDS011;8112;53.592;10.184;2022-08-03T06:41:35;3.70;;;3.35;;
16015;SDS011;8112;53.592;10.184;2022-08-03T06:46:41;4.53;;;3.13;;
16015;SDS011;8112;53.592;10.184;2022-08-03T06:51:44;4.88;;;3.58;;
16015;SDS011;8112;53.592;10.184;2022-08-03T06:56:45;3.53;;;3.22;;
16015;SDS011;8112;53.592;10.184;2022-08-03T07:01:47;3.92;;;3.50;;
16015;SDS011;8112;53.592;10.184;2022-08-03T07:06:50;3.67;;;3.13;;
16015;SDS011;8112;53.592;10.184;2022-08-03T07:11:53;3.03;;;2.72;;
16015;SDS011;8112;53.592;10.184;2022-08-03T07:16:56;4.43;;;3.38;;
16015;SDS011;8112;53.592;10.184;2022-08-03T07:21:59;3.80;;;3.40;;
16015;SDS011;8112;53.592;10.184;2022-08-03T07:27:02;3.33;;;3.03;;
16015;SDS011;8112;53.592;10.184;2022-08-03T07:32:04;3.92;;;3.20;;
16015;SDS011;8112;53.592;10.184;2022-08-03T07:37:08;4.30;;;2.78;;
16015;SDS011;8112;53.592;10.184;2022-08-03T07:42:10;3.05;;;2.85;;
16015;SDS011;8112;53.592;10.184;2022-08-03T07:47:12;3.90;;;2.85;;
16015;SDS011;8112;53.592;10.184;2022-08-03T07:52:19;3.25;;;2.85;;
16015;SDS011;8112;53.592;10.184;2022-08-03T07:57:38;3.85;;;2.90;;
16015;SDS011;8112;53.592;10.184;2022-08-03T08:02:40;4.20;;;2.75;;
16015;SDS011;8112;53.592;10.184;2022-08-03T08:07:44;3.22;;;2.60;;
16015;SDS011;8112;53.592;10.184;2022-08-03T08:12:46;3.50;;;2.83;;
16015;SDS011;8112;53.592;10.184;2022-08-03T08:17:48;4.20;;;2.67;;
16015;SDS011;8112;53.592;10.184;2022-08-03T08:22:52;2.80;;;2.60;;
16015;SDS011;8112;53.592;10.184;2022-08-03T08:27:57;2.58;;;2.38;;
16015;SDS011;8112;53.592;10.184;2022-08-03T08:33:02;3.20;;;2.08;;
16015;SDS011;8112;53.592;10.184;2022-08-03T08:38:06;2.72;;;1.92;;
16015;SDS011;8112;53.592;10.184;2022-08-03T08:43:07;2.58;;;2.10;;
16015;SDS011;8112;53.592;10.184;2022-08-03T08:48:09;2.88;;;1.88;;
16015;SDS011;8112;53.592;10.184;2022-08-03T08:53:14;3.05;;;2.13;;
16015;SDS011;8112;53.592;10.184;2022-08-03T08:58:18;3.13;;;1.92;;
16015;SDS011;8112;53.592;10.184;2022-08-03T09:03:22;4.55;;;1.85;;
16015;SDS011;8112;53.592;10.184;2022-08-03T09:08:25;3.83;;;2.00;;
16015;SDS011;8112;53.592;10.184;2022-08-03T09:13:28;4.18;;;1.80;;
16015;SDS011;8112;53.592;10.184;2022-08-03T09:18:30;5.97;;;1.85;;
16015;SDS011;8112;53.592;10.184;2022-08-03T09:23:38;4.25;;;1.77;;
16015;SDS011;8112;53.592;10.184;2022-08-03T09:28:54;5.72;;;1.95;;
16015;SDS011;8112;53.592;10.184;2022-08-03T09:33:59;5.28;;;1.77;;
16015;SDS011;8112;53.592;10.184;2022-08-03T09:39:04;2.65;;;1.75;;
16015;SDS011;8112;53.592;10.184;2022-08-03T09:44:10;6.47;;;1.50;;
16015;SDS011;8112;53.592;10.184;2022-08-03T09:49:12;3.35;;;1.50;;
16015;SDS011;8112;53.592;10.184;2022-08-03T09:54:25;3.55;;;1.80;;
16015;SDS011;8112;53.592;10.184;2022-08-03T09:59:29;4.13;;;1.65;;
16015;SDS011;8112;53.592;10.184;2022-08-03T10:04:31;4.20;;;1.67;;
16015;SDS011;8112;53.592;10.184;2022-08-03T10:09:34;2.75;;;1.88;;
16015;SDS011;8112;53.592;10.184;2022-08-03T10:14:36;3.17;;;1.90;;
16015;SDS011;8112;53.592;10.184;2022-08-03T10:19:39;3.08;;;1.85;;
16015;SDS011;8112;53.592;10.184;2022-08-03T10:24:45;6.65;;;1.80;;
16015;SDS011;8112;53.592;10.184;2022-08-03T10:29:54;4.25;;;1.58;;
16015;SDS011;8112;53.592;10.184;2022-08-03T10:35:02;4.05;;;1.50;;
16015;SDS011;8112;53.592;10.184;2022-08-03T10:40:08;5.88;;;2.03;;
16015;SDS011;8112;53.592;10.184;2022-08-03T10:45:14;4.65;;;1.75;;
16015;SDS011;8112;53.592;10.184;2022-08-03T10:50:21;3.08;;;1.67;;
16015;SDS011;8112;53.592;10.184;2022-08-03T10:55:32;5.70;;;1.60;;
16015;SDS011;8112;53.592;10.184;2022-08-03T11:00:53;2.13;;;1.30;;
16015;SDS011;8112;53.592;10.184;2022-08-03T11:06:12;3.15;;;1.42;;
16015;SDS011;8112;53.592;10.184;2022-08-03T11:11:27;4.57;;;1.40;;
16015;SDS011;8112;53.592;10.184;2022-08-03T11:16:29;3.33;;;1.50;;
16015;SDS011;8112;53.592;10.184;2022-08-03T11:21:55;5.28;;;1.80;;
16015;SDS011;8112;53.592;10.184;2022-08-03T11:38:06;3.58;;;1.65;;
16015;SDS011;8112;53.592;10.184;2022-08-03T11:48:46;2.70;;;1.70;;
16015;SDS011;8112;53.592;10.184;2022-08-03T11:53:53;2.83;;;1.60;;
16015;SDS011;8112;53.592;10.184;2022-08-03T11:58:56;4.88;;;1.45;;
16015;SDS011;8112;53.592;10.184;2022-08-03T12:04:01;3.28;;;1.65;;
16015;SDS011;8112;53.592;10.184;2022-08-03T12:09:13;3.38;;;1.88;;
16015;SDS011;8112;53.592;10.184;2022-08-03T12:14:18;3.75;;;1.70;;
16015;SDS011;8112;53.592;10.184;2022-08-03T12:19:20;3.20;;;1.48;;
16015;SDS011;8112;53.592;10.184;2022-08-03T12:24:21;2.63;;;1.50;;
16015;SDS011;8112;53.592;10.184;2022-08-03T12:29:28;2.92;;;1.38;;
16015;SDS011;8112;53.592;10.184;2022-08-03T12:39:54;4.03;;;1.38;;
16015;SDS011;8112;53.592;10.184;2022-08-03T12:45:00;3.90;;;1.63;;
16015;SDS011;8112;53.592;10.184;2022-08-03T12:50:25;5.55;;;1.80;;
16015;SDS011;8112;53.592;10.184;2022-08-03T12:55:28;2.08;;;1.45;;
16015;SDS011;8112;53.592;10.184;2022-08-03T13:00:35;5.38;;;1.58;;
16015;SDS011;8112;53.592;10.184;2022-08-03T13:05:41;3.97;;;1.42;;
16015;SDS011;8112;53.592;10.184;2022-08-03T13:10:44;7.13;;;1.85;;
16015;SDS011;8112;53.592;10.184;2022-08-03T13:15:47;3.97;;;1.45;;
16015;SDS011;8112;53.592;10.184;2022-08-03T13:20:49;5.57;;;1.20;;
16015;SDS011;8112;53.592;10.184;2022-08-03T13:25:51;5.10;;;1.55;;
16015;SDS011;8112;53.592;10.184;2022-08-03T13:30:54;4.05;;;1.70;;
16015;SDS011;8112;53.592;10.184;2022-08-03T13:35:55;5.93;;;2.10;;
16015;SDS011;8112;53.592;10.184;2022-08-03T13:40:57;3.90;;;1.55;;
16015;SDS011;8112;53.592;10.184;2022-08-03T13:46:03;6.05;;;1.83;;
16015;SDS011;8112;53.592;10.184;2022-08-03T13:51:08;3.10;;;1.67;;
16015;SDS011;8112;53.592;10.184;2022-08-03T13:56:10;4.68;;;2.00;;
16015;SDS011;8112;53.592;10.184;2022-08-03T14:01:16;3.85;;;1.73;;
16015;SDS011;8112;53.592;10.184;2022-08-03T14:06:18;4.80;;;1.75;;
16015;SDS011;8112;53.592;10.184;2022-08-03T14:11:20;3.67;;;1.50;;
16015;SDS011;8112;53.592;10.184;2022-08-03T14:16:23;3.38;;;1.65;;
16015;SDS011;8112;53.592;10.184;2022-08-03T14:21:25;2.80;;;1.50;;
16015;SDS011;8112;53.592;10.184;2022-08-03T14:26:26;4.25;;;1.90;;
16015;SDS011;8112;53.592;10.184;2022-08-03T14:31:30;5.63;;;1.45;;
16015;SDS011;8112;53.592;10.184;2022-08-03T14:36:32;4.18;;;1.75;;
16015;SDS011;8112;53.592;10.184;2022-08-03T14:41:34;4.15;;;1.55;;
16015;SDS011;8112;53.592;10.184;2022-08-03T14:46:37;4.30;;;1.70;;
16015;SDS011;8112;53.592;10.184;2022-08-03T14:51:39;4.30;;;1.38;;
16015;SDS011;8112;53.592;10.184;2022-08-03T14:56:40;2.60;;;1.65;;
16015;SDS011;8112;53.592;10.184;2022-08-03T15:01:43;3.85;;;1.70;;
16015;SDS011;8112;53.592;10.184;2022-08-03T15:06:45;2.85;;;1.50;;
16015;SDS011;8112;53.592;10.184;2022-08-03T15:11:47;2.92;;;1.48;;
16015;SDS011;8112;53.592;10.184;2022-08-03T15:16:50;3.45;;;1.42;;
16015;SDS011;8112;53.592;10.184;2022-08-03T15:21:53;5.30;;;1.90;;
16015;SDS011;8112;53.592;10.184;2022-08-03T15:26:55;5.10;;;1.88;;
16015;SDS011;8112;53.592;10.184;2022-08-03T15:31:58;3.85;;;1.50;;
16015;SDS011;8112;53.592;10.184;2022-08-03T15:37:00;3.53;;;1.50;;
16015;SDS011;8112;53.592;10.184;2022-08-03T15:42:02;4.32;;;1.40;;
16015;SDS011;8112;53.592;10.184;2022-08-03T15:47:06;4.15;;;1.63;;
16015;SDS011;8112;53.592;10.184;2022-08-03T15:52:07;5.68;;;1.67;;
16015;SDS011;8112;53.592;10.184;2022-08-03T15:57:09;3.25;;;1.90;;
16015;SDS011;8112;53.592;10.184;2022-08-03T16:02:12;3.65;;;1.75;;
16015;SDS011;8112;53.592;10.184;2022-08-03T16:07:17;5.85;;;1.48;;
16015;SDS011;8112;53.592;10.184;2022-08-03T16:12:39;3.00;;;1.55;;
16015;SDS011;8112;53.592;10.184;2022-08-03T16:17:45;3.53;;;1.70;;
16015;SDS011;8112;53.592;10.184;2022-08-03T16:22:47;1.98;;;1.05;;
16015;SDS011;8112;53.592;10.184;2022-08-03T16:27:49;3.50;;;1.40;;
16015;SDS011;8112;53.592;10.184;2022-08-03T16:32:53;6.00;;;1.60;;
16015;SDS011;8112;53.592;10.184;2022-08-03T16:37:54;3.85;;;1.30;;
16015;SDS011;8112;53.592;10.184;2022-08-03T16:42:56;3.25;;;1.70;;
16015;SDS011;8112;53.592;10.184;2022-08-03T16:47:59;4.05;;;1.45;;
16015;SDS011;8112;53.592;10.184;2022-08-03T16:53:02;2.72;;;1.70;;
16015;SDS011;8112;53.592;10.184;2022-08-03T16:58:07;3.75;;;1.40;;
16015;SDS011;8112;53.592;10.184;2022-08-03T17:03:10;3.70;;;1.50;;
16015;SDS011;8112;53.592;10.184;2022-08-03T17:08:12;5.35;;;1.70;;
16015;SDS011;8112;53.592;10.184;2022-08-03T17:13:15;3.78;;;1.63;;
16015;SDS011;8112;53.592;10.184;2022-08-03T17:18:18;5.78;;;1.83;;
16015;SDS011;8112;53.592;10.184;2022-08-03T17:23:37;5.25;;;2.13;;
16015;SDS011;8112;53.592;10.184;2022-08-03T17:28:45;5.47;;;1.50;;
16015;SDS011;8112;53.592;10.184;2022-08-03T17:33:50;5.50;;;1.85;;
16015;SDS011;8112;53.592;10.184;2022-08-03T17:38:53;4.03;;;2.28;;
16015;SDS011;8112;53.592;10.184;2022-08-03T17:43:55;3.08;;;1.92;;
16015;SDS011;8112;53.592;10.184;2022-08-03T17:48:58;3.30;;;1.85;;
16015;SDS011;8112;53.592;10.184;2022-08-03T17:54:03;9.70;;;2.53;;
16015;SDS011;8112;53.592;10.184;2022-08-03T17:59:12;3.40;;;1.77;;
16015;SDS011;8112;53.592;10.184;2022-08-03T18:04:18;5.93;;;1.92;;
16015;SDS011;8112;53.592;10.184;2022-08-03T18:09:22;3.78;;;1.50;;
16015;SDS011;8112;53.592;10.184;2022-08-03T18:14:28;4.40;;;1.88;;
16015;SDS011;8112;53.592;10.184;2022-08-03T18:19:38;2.90;;;1.58;;
16015;SDS011;8112;53.592;10.184;2022-08-03T18:24:40;2.95;;;1.80;;
16015;SDS011;8112;53.592;10.184;2022-08-03T18:29:42;5.30;;;2.50;;
16015;SDS011;8112;53.592;10.184;2022-08-03T18:34:47;4.50;;;1.95;;
16015;SDS011;8112;53.592;10.184;2022-08-03T18:39:49;2.55;;;1.95;;
16015;SDS011;8112;53.592;10.184;2022-08-03T18:44:51;4.63;;;2.88;;
16015;SDS011;8112;53.592;10.184;2022-08-03T18:49:59;4.18;;;2.72;;
16015;SDS011;8112;53.592;10.184;2022-08-03T18:55:08;5.15;;;2.40;;
16015;SDS011;8112;53.592;10.184;2022-08-03T19:00:18;4.05;;;3.08;;
16015;SDS011;8112;53.592;10.184;2022-08-03T19:05:23;7.57;;;3.17;;
16015;SDS011;8112;53.592;10.184;2022-08-03T19:10:28;7.68;;;2.88;;
16015;SDS011;8112;53.592;10.184;2022-08-03T19:15:31;4.32;;;2.55;;
16015;SDS011;8112;53.592;10.184;2022-08-03T19:20:35;3.92;;;2.47;;
16015;SDS011;8112;53.592;10.184;2022-08-03T19:25:37;5.90;;;2.05;;
16015;SDS011;8112;53.592;10.184;2022-08-03T19:30:40;4.57;;;1.88;;
16015;SDS011;8112;53.592;10.184;2022-08-03T19:35:44;4.00;;;2.40;;
16015;SDS011;8112;53.592;10.184;2022-08-03T19:40:48;5.32;;;2.25;;
16015;SDS011;8112;53.592;10.184;2022-08-03T19:45:54;4.68;;;2.13;;
16015;SDS011;8112;53.592;10.184;2022-08-03T19:50:58;4.72;;;2.22;;
16015;SDS011;8112;53.592;10.184;2022-08-03T19:56:04;6.07;;;2.35;;
16015;SDS011;8112;53.592;10.184;2022-08-03T20:01:06;6.47;;;2.63;;
16015;SDS011;8112;53.592;10.184;2022-08-03T20:06:10;3.67;;;2.15;;
16015;SDS011;8112;53.592;10.184;2022-08-03T20:11:12;3.00;;;1.88;;
16015;SDS011;8112;53.592;10.184;2022-08-03T20:16:15;6.03;;;2.35;;
16015;SDS011;8112;53.592;10.184;2022-08-03T20:21:18;3.25;;;2.17;;
16015;SDS011;8112;53.592;10.184;2022-08-03T20:26:24;7.25;;;2.35;;
16015;SDS011;8112;53.592;10.184;2022-08-03T20:31:30;8.57;;;2.43;;
16015;SDS011;8112;53.592;10.184;2022-08-03T20:36:34;3.42;;;2.20;;
16015;SDS011;8112;53.592;10.184;2022-08-03T20:41:41;5.25;;;2.70;;
16015;SDS011;8112;53.592;10.184;2022-08-03T20:46:42;6.37;;;3.07;;
16015;SDS011;8112;53.592;10.184;2022-08-03T20:51:46;6.70;;;3.08;;
16015;SDS011;8112;53.592;10.184;2022-08-03T20:56:49;4.90;;;2.80;;
16015;SDS011;8112;53.592;10.184;2022-08-03T21:01:51;4.07;;;2.53;;
16015;SDS011;8112;53.592;10.184;2022-08-03T21:06:55;6.68;;;3.45;;
16015;SDS011;8112;53.592;10.184;2022-08-03T21:12:02;7.10;;;3.87;;
16015;SDS011;8112;53.592;10.184;2022-08-03T21:17:17;6.75;;;3.40;;
16015;SDS011;8112;53.592;10.184;2022-08-03T21:22:23;12.17;;;5.90;;
16015;SDS011;8112;53.592;10.184;2022-08-03T21:27:30;22.20;;;14.83;;
16015;SDS011;8112;53.592;10.184;2022-08-03T21:32:32;30.97;;;21.37;;
16015;SDS011;8112;53.592;10.184;2022-08-03T21:37:37;26.57;;;17.03;;
16015;SDS011;8112;53.592;10.184;2022-08-03T21:42:43;56.40;;;32.70;;
16015;SDS011;8112;53.592;10.184;2022-08-03T21:47:45;51.00;;;34.20;;
16015;SDS011;8112;53.592;10.184;2022-08-03T21:52:49;39.93;;;23.90;;
16015;SDS011;8112;53.592;10.184;2022-08-03T21:57:52;18.97;;;11.13;;
16015;SDS011;8112;53.592;10.184;2022-08-03T22:02:54;10.43;;;4.50;;
16015;SDS011;8112;53.592;10.184;2022-08-03T22:07:58;8.37;;;3.73;;
16015;SDS011;8112;53.592;10.184;2022-08-03T22:13:00;6.10;;;2.70;;
16015;SDS011;8112;53.592;10.184;2022-08-03T22:18:02;7.10;;;2.67;;
16015;SDS011;8112;53.592;10.184;2022-08-03T22:23:06;9.00;;;2.87;;
16015;SDS011;8112;53.592;10.184;2022-08-03T22:28:14;5.87;;;2.47;;
16015;SDS011;8112;53.592;10.184;2022-08-03T22:33:18;6.73;;;2.40;;
16015;SDS011;8112;53.592;10.184;2022-08-03T22:38:23;6.97;;;2.87;;
16015;SDS011;8112;53.592;10.184;2022-08-03T22:43:34;7.40;;;2.67;;
16015;SDS011;8112;53.592;10.184;2022-08-03T22:48:37;6.57;;;2.90;;
16015;SDS011;8112;53.592;10.184;2022-08-03T22:53:41;6.50;;;3.10;;
16015;SDS011;8112;53.592;10.184;2022-08-03T22:58:45;8.30;;;2.40;;
16015;SDS011;8112;53.592;10.184;2022-08-03T23:03:49;5.60;;;2.87;;
16015;SDS011;8112;53.592;10.184;2022-08-03T23:08:59;8.07;;;3.50;;
16015;SDS011;8112;53.592;10.184;2022-08-03T23:14:12;4.70;;;2.70;;
16015;SDS011;8112;53.592;10.184;2022-08-03T23:19:17;11.33;;;2.70;;
16015;SDS011;8112;53.592;10.184;2022-08-03T23:24:21;10.57;;;3.63;;
16015;SDS011;8112;53.592;10.184;2022-08-03T23:29:23;4.93;;;2.37;;
16015;SDS011;8112;53.592;10.184;2022-08-03T23:34:29;5.70;;;2.70;;
16015;SDS011;8112;53.592;10.184;2022-08-03T23:39:50;6.13;;;2.57;;
16015;SDS011;8112;53.592;10.184;2022-08-03T23:50:17;7.03;;;3.17;;
16015;SDS011;8112;53.592;10.184;2022-08-03T23:55:24;5.60;;;2.67;;
